Time;durP1;ratioP1;P1;durP2;ratioP2;P2;SDS_P1;SDS_P2;PMS_P1;PMS_P2;Temp;Humidity;BMP_temperature;BMP_pressure;BME280_temperature;BME280_humidity;BME280_pressure;Samples;Min_cycle;Max_cycle;Signal;HPM_P1;HPM_P2
2022/12/05 00:01:18;;;;;;;1.73;1.63;;;;;;;;;;7388080;19;20654;-62
2022/12/05 00:03:43;;;;;;;2.43;1.60;;;;;;;;;;7380757;19;20164;-63
2022/12/05 00:06:09;;;;;;;1.63;1.53;;;;;;;;;;7376600;19;20125;-62
2022/12/05 00:08:34;;;;;;;2.23;1.07;;;;;;;;;;7379881;19;20524;-62
2022/12/05 00:10:59;;;;;;;0.70;0.70;;;;;;;;;;7375879;19;20151;-62
2022/12/05 00:13:25;;;;;;;3.03;1.10;;;;;;;;;;7384568;19;20145;-62
2022/12/05 00:15:50;;;;;;;1.37;1.20;;;;;;;;;;7386196;19;20144;-61
2022/12/05 00:18:15;;;;;;;1.77;0.90;;;;;;;;;;7387586;19;20207;-62
2022/12/05 00:20:45;;;;;;;1.03;1.03;;;;;;;;;;7376110;19;20230;-62
2022/12/05 00:23:10;;;;;;;1.00;0.93;;;;;;;;;;7364792;19;20152;-62
2022/12/05 00:25:36;;;;;;;2.13;1.57;;;;;;;;;;7381977;19;20121;-62
2022/12/05 00:28:01;;;;;;;1.27;1.10;;;;;;;;;;7374386;19;20509;-62
2022/12/05 00:30:26;;;;;;;1.10;1.00;;;;;;;;;;7383305;19;20163;-62
2022/12/05 00:32:52;;;;;;;1.67;1.43;;;;;;;;;;7382757;19;20507;-62
2022/12/05 00:35:17;;;;;;;0.93;0.70;;;;;;;;;;7383935;19;20117;-62
2022/12/05 00:37:42;;;;;;;0.80;0.80;;;;;;;;;;7384316;19;20642;-62
2022/12/05 00:40:08;;;;;;;2.00;1.47;;;;;;;;;;7392204;19;20125;-62
2022/12/05 00:42:33;;;;;;;1.00;1.00;;;;;;;;;;7388365;19;20168;-62
2022/12/05 00:44:59;;;;;;;1.00;1.00;;;;;;;;;;7395108;19;20645;-62
2022/12/05 00:47:24;;;;;;;3.93;1.67;;;;;;;;;;7391678;19;20124;-61
2022/12/05 00:49:49;;;;;;;1.40;1.23;;;;;;;;;;7392594;19;20151;-62
2022/12/05 00:52:14;;;;;;;2.07;1.93;;;;;;;;;;7390406;19;20137;-62
2022/12/05 00:54:40;;;;;;;1.27;1.23;;;;;;;;;;7387461;19;20600;-62
2022/12/05 00:57:05;;;;;;;1.70;1.60;;;;;;;;;;7389055;19;20132;-62
2022/12/05 00:59:31;;;;;;;2.37;1.43;;;;;;;;;;7372648;19;20131;-62
2022/12/05 01:01:56;;;;;;;1.90;1.80;;;;;;;;;;7380401;19;20157;-62
2022/12/05 01:04:24;;;;;;;1.60;1.50;;;;;;;;;;7371066;19;20216;-62
2022/12/05 01:06:53;;;;;;;1.67;1.40;;;;;;;;;;7380682;19;20141;-62
2022/12/05 01:09:20;;;;;;;0.90;0.90;;;;;;;;;;7380050;19;20121;-62
2022/12/05 01:11:46;;;;;;;1.67;1.57;;;;;;;;;;7365533;19;20149;-62
2022/12/05 01:14:13;;;;;;;0.60;0.60;;;;;;;;;;7379432;19;20132;-62
2022/12/05 01:16:42;;;;;;;1.17;1.17;;;;;;;;;;7362588;19;20391;-62
2022/12/05 01:19:11;;;;;;;1.00;1.00;;;;;;;;;;7379176;19;20148;-62
2022/12/05 01:21:37;;;;;;;1.17;1.10;;;;;;;;;;7366721;19;20149;-62
2022/12/05 01:24:02;;;;;;;1.63;0.93;;;;;;;;;;7348227;19;20138;-62
2022/12/05 01:26:28;;;;;;;1.03;0.73;;;;;;;;;;7364793;19;20145;-62
2022/12/05 01:28:53;;;;;;;0.60;0.60;;;;;;;;;;7369849;19;20581;-62
2022/12/05 01:31:26;;;;;;;0.60;0.60;;;;;;;;;;7373198;19;20450;-62
2022/12/05 01:33:53;;;;;;;0.50;0.50;;;;;;;;;;7380486;19;20626;-62
2022/12/05 01:36:19;;;;;;;2.07;0.60;;;;;;;;;;7366364;19;20231;-62
2022/12/05 01:38:44;;;;;;;0.50;0.50;;;;;;;;;;7376561;19;20121;-62
2022/12/05 01:41:19;;;;;;;0.57;0.57;;;;;;;;;;7368644;19;20133;-62
2022/12/05 01:44:00;;;;;;;0.57;0.57;;;;;;;;;;7375300;19;20154;-62
2022/12/05 01:46:27;;;;;;;0.47;0.47;;;;;;;;;;7387166;19;20125;-62
2022/12/05 01:48:57;;;;;;;1.40;1.03;;;;;;;;;;7386089;19;20124;-62
2022/12/05 01:51:23;;;;;;;1.03;1.03;;;;;;;;;;7387870;19;20125;-62
2022/12/05 01:53:48;;;;;;;0.90;0.90;;;;;;;;;;7388134;19;21122;-62
2022/12/05 01:56:15;;;;;;;0.93;0.93;;;;;;;;;;7389079;19;20121;-62
2022/12/05 01:58:41;;;;;;;0.53;0.53;;;;;;;;;;7388177;19;20244;-62
2022/12/05 02:01:07;;;;;;;0.70;0.70;;;;;;;;;;7386786;19;20125;-62
2022/12/05 02:03:32;;;;;;;1.10;1.10;;;;;;;;;;7383519;19;20149;-62
2022/12/05 02:05:58;;;;;;;1.00;0.73;;;;;;;;;;7388237;19;20523;-62
2022/12/05 02:08:26;;;;;;;0.43;0.43;;;;;;;;;;7388493;19;20602;-62
2022/12/05 02:10:53;;;;;;;0.60;0.60;;;;;;;;;;7388768;19;20113;-62
2022/12/05 02:13:43;;;;;;;1.67;1.57;;;;;;;;;;7384873;19;20149;-62
2022/12/05 02:16:19;;;;;;;1.07;1.00;;;;;;;;;;7388593;19;20117;-62
2022/12/05 02:18:55;;;;;;;3.60;1.33;;;;;;;;;;7386187;19;20653;-62
2022/12/05 02:21:45;;;;;;;2.27;2.07;;;;;;;;;;7389311;19;20143;-62
2022/12/05 02:24:37;;;;;;;1.20;1.10;;;;;;;;;;7388908;19;20132;-62
2022/12/05 02:27:14;;;;;;;2.00;1.90;;;;;;;;;;7374503;19;20134;-62
2022/12/05 02:30:03;;;;;;;1.90;1.43;;;;;;;;;;7384972;19;20125;-62
2022/12/05 02:32:50;;;;;;;1.70;1.60;;;;;;;;;;7385101;19;20153;-62
2022/12/05 02:35:27;;;;;;;1.50;1.40;;;;;;;;;;7387392;19;20125;-62
2022/12/05 02:38:01;;;;;;;1.30;1.20;;;;;;;;;;7386302;19;20871;-62
2022/12/05 02:40:45;;;;;;;1.23;1.13;;;;;;;;;;7384915;19;20121;-62
2022/12/05 02:43:18;;;;;;;1.50;1.33;;;;;;;;;;7385382;19;20514;-62
2022/12/05 02:45:44;;;;;;;1.37;1.27;;;;;;;;;;7387266;19;20490;-62
2022/12/05 02:48:11;;;;;;;1.93;1.77;;;;;;;;;;7384552;19;20459;-62
2022/12/05 02:50:37;;;;;;;5.47;2.03;;;;;;;;;;7387470;19;20188;-62
2022/12/05 02:53:07;;;;;;;1.07;1.07;;;;;;;;;;7381017;19;20639;-62
2022/12/05 02:55:33;;;;;;;1.30;1.20;;;;;;;;;;7379687;19;20121;-62
2022/12/05 02:58:02;;;;;;;1.20;1.20;;;;;;;;;;7385522;19;20124;-62
2022/12/05 03:00:27;;;;;;;1.43;1.33;;;;;;;;;;7384530;19;20113;-62
2022/12/05 03:02:55;;;;;;;1.17;1.17;;;;;;;;;;7382104;19;20208;-62
2022/12/05 03:05:41;;;;;;;1.93;1.07;;;;;;;;;;7385880;19;20132;-62
2022/12/05 03:08:11;;;;;;;2.20;1.27;;;;;;;;;;7387767;19;20596;-62
2022/12/05 03:10:38;;;;;;;1.03;1.03;;;;;;;;;;7382220;19;20621;-62
2022/12/05 03:13:07;;;;;;;0.63;0.63;;;;;;;;;;7364524;19;20145;-62
2022/12/05 03:15:40;;;;;;;0.80;0.80;;;;;;;;;;7376077;19;20136;-62
2022/12/05 03:18:10;;;;;;;1.33;1.07;;;;;;;;;;7382292;19;20477;-62
2022/12/05 03:20:45;;;;;;;1.40;1.30;;;;;;;;;;7379856;19;20121;-62
2022/12/05 03:23:18;;;;;;;1.33;1.23;;;;;;;;;;7368744;19;20151;-62
2022/12/05 03:25:53;;;;;;;1.37;1.27;;;;;;;;;;7381880;19;20132;-62
2022/12/05 03:28:38;;;;;;;1.47;1.07;;;;;;;;;;7385353;19;20136;-62
2022/12/05 03:31:08;;;;;;;2.60;1.70;;;;;;;;;;7382577;19;20128;-62
2022/12/05 03:33:39;;;;;;;0.87;0.87;;;;;;;;;;7377696;19;20149;-62
2022/12/05 03:36:14;;;;;;;1.40;1.33;;;;;;;;;;7387468;19;20208;-62
2022/12/05 03:38:53;;;;;;;1.07;1.00;;;;;;;;;;7387159;19;20112;-62
2022/12/05 03:41:24;;;;;;;1.00;1.00;;;;;;;;;;7388780;19;20513;-62
2022/12/05 03:44:00;;;;;;;0.90;0.90;;;;;;;;;;7382346;19;20192;-62
2022/12/05 03:46:32;;;;;;;1.37;1.27;;;;;;;;;;7388826;19;20116;-62
2022/12/05 03:49:02;;;;;;;2.27;2.17;;;;;;;;;;7388022;19;20161;-62
2022/12/05 03:51:42;;;;;;;0.97;0.97;;;;;;;;;;7381675;19;20134;-62
2022/12/05 03:54:17;;;;;;;1.40;1.30;;;;;;;;;;7387509;19;20139;-62
2022/12/05 03:56:47;;;;;;;1.90;1.57;;;;;;;;;;7386107;19;20144;-62
2022/12/05 03:59:29;;;;;;;3.63;2.27;;;;;;;;;;7387561;19;20571;-62
2022/12/05 04:01:56;;;;;;;2.43;2.03;;;;;;;;;;7381899;19;20179;-62
2022/12/05 04:04:27;;;;;;;1.93;1.73;;;;;;;;;;7389176;19;20128;-62
2022/12/05 04:06:55;;;;;;;1.30;1.23;;;;;;;;;;7388554;19;20125;-62
2022/12/05 04:09:28;;;;;;;2.33;1.60;;;;;;;;;;7388641;19;20117;-62
2022/12/05 04:11:59;;;;;;;1.03;1.03;;;;;;;;;;7387940;19;20152;-62
2022/12/05 04:14:29;;;;;;;1.53;1.43;;;;;;;;;;7394615;19;20106;-62
2022/12/05 04:17:03;;;;;;;2.07;1.67;;;;;;;;;;7395771;19;20486;-62
2022/12/05 04:22:44;;;;;;;1.30;1.20;;;;;;;;;;7389751;19;20559;-62
2022/12/05 04:28:28;;;;;;;1.43;1.33;;;;;;;;;;7395629;19;20932;-62
2022/12/05 04:31:29;;;;;;;0.57;0.57;;;;;;;;;;7394694;19;20125;-62
2022/12/05 04:33:56;;;;;;;1.03;1.03;;;;;;;;;;7388721;19;20167;-62
2022/12/05 04:36:26;;;;;;;1.13;0.83;;;;;;;;;;7392896;19;20121;-62
2022/12/05 04:38:55;;;;;;;1.33;1.23;;;;;;;;;;7396045;19;20117;-62
2022/12/05 04:41:24;;;;;;;1.63;1.03;;;;;;;;;;7392168;19;20113;-62
2022/12/05 04:43:51;;;;;;;0.90;0.90;;;;;;;;;;7391633;19;20125;-62
2022/12/05 04:46:18;;;;;;;1.03;1.03;;;;;;;;;;7391569;19;20484;-62
2022/12/05 04:48:48;;;;;;;1.63;1.37;;;;;;;;;;7393004;19;20125;-62
2022/12/05 04:51:17;;;;;;;0.90;0.77;;;;;;;;;;7391211;19;20113;-62
2022/12/05 04:53:44;;;;;;;1.50;1.37;;;;;;;;;;7393173;19;20500;-62
2022/12/05 04:56:11;;;;;;;0.80;0.80;;;;;;;;;;7390273;19;20117;-62
2022/12/05 04:58:36;;;;;;;1.13;1.03;;;;;;;;;;7385048;19;20151;-62
2022/12/05 05:01:24;;;;;;;0.70;0.70;;;;;;;;;;7382867;19;20189;-62
2022/12/05 05:03:53;;;;;;;0.90;0.90;;;;;;;;;;7379203;19;20152;-62
2022/12/05 05:06:19;;;;;;;1.00;0.73;;;;;;;;;;7385728;19;20121;-62
2022/12/05 05:08:50;;;;;;;0.60;0.60;;;;;;;;;;7391269;19;20119;-62
2022/12/05 05:11:19;;;;;;;0.63;0.63;;;;;;;;;;7383397;19;20124;-62
2022/12/05 05:13:44;;;;;;;0.70;0.70;;;;;;;;;;7384171;19;20142;-62
2022/12/05 05:16:18;;;;;;;1.00;1.00;;;;;;;;;;7383535;19;20109;-62
2022/12/05 05:18:47;;;;;;;0.57;0.57;;;;;;;;;;7390794;19;20589;-62
2022/12/05 05:21:19;;;;;;;0.90;0.90;;;;;;;;;;7391820;19;20127;-62
2022/12/05 05:23:44;;;;;;;0.40;0.40;;;;;;;;;;7379226;19;20209;-62
2022/12/05 05:26:10;;;;;;;0.90;0.87;;;;;;;;;;7386526;19;20113;-62
2022/12/05 05:28:35;;;;;;;0.43;0.43;;;;;;;;;;7386288;19;20117;-62
2022/12/05 05:31:02;;;;;;;0.77;0.77;;;;;;;;;;7391446;19;20117;-62
2022/12/05 05:33:27;;;;;;;0.37;0.37;;;;;;;;;;7387674;19;20155;-62
2022/12/05 05:35:52;;;;;;;0.63;0.63;;;;;;;;;;7391902;19;20192;-62
2022/12/05 05:38:18;;;;;;;0.67;0.67;;;;;;;;;;7393541;19;20654;-62
2022/12/05 05:40:43;;;;;;;1.20;0.60;;;;;;;;;;7390374;19;20133;-62
2022/12/05 05:43:08;;;;;;;0.60;0.60;;;;;;;;;;7389202;19;20153;-62
2022/12/05 05:45:35;;;;;;;0.50;0.50;;;;;;;;;;7393653;19;20125;-62
2022/12/05 05:48:01;;;;;;;0.50;0.50;;;;;;;;;;7390313;19;20129;-62
2022/12/05 05:50:27;;;;;;;0.30;0.30;;;;;;;;;;7390218;19;20117;-62
2022/12/05 05:52:53;;;;;;;1.07;0.97;;;;;;;;;;7388067;19;20148;-62
2022/12/05 05:55:19;;;;;;;0.33;0.33;;;;;;;;;;7390635;19;20129;-62
2022/12/05 05:57:44;;;;;;;0.70;0.70;;;;;;;;;;7392872;19;20466;-62
2022/12/05 06:00:10;;;;;;;0.80;0.80;;;;;;;;;;7389289;19;20151;-62
2022/12/05 06:02:36;;;;;;;0.50;0.50;;;;;;;;;;7387145;19;20181;-62
2022/12/05 06:05:02;;;;;;;1.07;0.70;;;;;;;;;;7389616;19;20532;-62
2022/12/05 06:07:27;;;;;;;0.37;0.37;;;;;;;;;;7391503;19;20121;-62
2022/12/05 06:09:53;;;;;;;2.63;0.70;;;;;;;;;;7388897;19;20593;-62
2022/12/05 06:12:18;;;;;;;0.50;0.50;;;;;;;;;;7388064;19;20649;-62
2022/12/05 06:14:43;;;;;;;0.40;0.40;;;;;;;;;;7389457;19;20552;-62
2022/12/05 06:17:09;;;;;;;0.20;0.20;;;;;;;;;;7384826;19;20140;-62
2022/12/05 06:19:34;;;;;;;0.33;0.33;;;;;;;;;;7389671;19;20128;-62
2022/12/05 06:21:59;;;;;;;0.40;0.40;;;;;;;;;;7389979;19;20161;-62
2022/12/05 06:24:25;;;;;;;0.30;0.30;;;;;;;;;;7386139;19;20136;-62
2022/12/05 06:26:50;;;;;;;1.60;0.57;;;;;;;;;;7387657;19;20596;-62
2022/12/05 06:29:15;;;;;;;0.70;0.70;;;;;;;;;;7391673;19;20121;-62
2022/12/05 06:31:41;;;;;;;0.30;0.30;;;;;;;;;;7388872;19;20160;-62
2022/12/05 06:34:06;;;;;;;0.40;0.40;;;;;;;;;;7388311;19;20239;-62
2022/12/05 06:36:32;;;;;;;0.40;0.40;;;;;;;;;;7389004;19;20133;-62
2022/12/05 06:38:58;;;;;;;0.70;0.70;;;;;;;;;;7391253;19;20581;-62
2022/12/05 06:41:23;;;;;;;1.03;0.50;;;;;;;;;;7388377;19;20587;-62
2022/12/05 06:46:15;;;;;;;0.43;0.43;;;;;;;;;;7388439;19;20491;-62
2022/12/05 06:48:41;;;;;;;0.30;0.30;;;;;;;;;;7388037;19;20180;-62
2022/12/05 06:51:09;;;;;;;0.37;0.37;;;;;;;;;;7388229;19;20121;-62
2022/12/05 06:53:34;;;;;;;0.30;0.30;;;;;;;;;;7373225;19;20622;-62
2022/12/05 06:56:02;;;;;;;0.27;0.27;;;;;;;;;;7375484;19;20144;-62
2022/12/05 06:58:28;;;;;;;0.67;0.50;;;;;;;;;;7351530;19;20132;-62
2022/12/05 07:03:37;;;;;;;0.43;0.43;;;;;;;;;;7385302;19;20666;-62
2022/12/05 07:06:04;;;;;;;0.30;0.30;;;;;;;;;;7393210;19;20125;-62
2022/12/05 07:08:30;;;;;;;0.40;0.40;;;;;;;;;;7391357;19;20633;-62
2022/12/05 07:10:55;;;;;;;0.37;0.37;;;;;;;;;;7390409;19;20146;-62
2022/12/05 07:13:21;;;;;;;0.30;0.30;;;;;;;;;;7389359;19;20593;-62
2022/12/05 07:15:47;;;;;;;0.30;0.30;;;;;;;;;;7390171;19;20531;-62
2022/12/05 07:18:13;;;;;;;0.37;0.37;;;;;;;;;;7390694;19;20514;-62
2022/12/05 07:20:38;;;;;;;0.30;0.30;;;;;;;;;;7390914;19;20185;-62
2022/12/05 07:23:03;;;;;;;0.40;0.40;;;;;;;;;;7384503;19;20177;-62
2022/12/05 07:25:29;;;;;;;0.33;0.33;;;;;;;;;;7389051;19;20143;-62
2022/12/05 07:27:54;;;;;;;0.30;0.30;;;;;;;;;;7385331;19;20121;-62
2022/12/05 07:30:19;;;;;;;0.40;0.40;;;;;;;;;;7387590;19;20117;-62
2022/12/05 07:32:45;;;;;;;0.30;0.30;;;;;;;;;;7387639;19;20145;-62
2022/12/05 07:35:10;;;;;;;0.40;0.40;;;;;;;;;;7389618;19;20125;-62
2022/12/05 07:37:35;;;;;;;0.40;0.40;;;;;;;;;;7392701;19;20129;-62
2022/12/05 07:40:01;;;;;;;0.20;0.20;;;;;;;;;;7391303;19;20128;-62
2022/12/05 07:42:26;;;;;;;0.30;0.30;;;;;;;;;;7389335;19;20467;-62
2022/12/05 07:44:51;;;;;;;0.30;0.30;;;;;;;;;;7390506;19;20136;-62
2022/12/05 07:47:17;;;;;;;0.30;0.30;;;;;;;;;;7396700;19;20120;-62
2022/12/05 07:49:42;;;;;;;0.97;0.60;;;;;;;;;;7399014;19;20519;-62
2022/12/05 07:52:08;;;;;;;0.30;0.30;;;;;;;;;;7395499;19;20140;-63
2022/12/05 07:54:34;;;;;;;1.50;0.70;;;;;;;;;;7398337;19;20633;-62
2022/12/05 07:56:59;;;;;;;0.60;0.60;;;;;;;;;;7399081;19;20124;-62
2022/12/05 07:59:24;;;;;;;0.30;0.30;;;;;;;;;;7398009;19;20141;-62
2022/12/05 08:01:50;;;;;;;0.40;0.40;;;;;;;;;;7388074;19;20145;-62
2022/12/05 08:04:15;;;;;;;0.30;0.30;;;;;;;;;;7396017;19;20582;-62
2022/12/05 08:06:40;;;;;;;0.30;0.30;;;;;;;;;;7392773;19;20449;-62
2022/12/05 08:09:06;;;;;;;0.30;0.30;;;;;;;;;;7391635;19;20121;-62
2022/12/05 08:11:35;;;;;;;0.30;0.30;;;;;;;;;;7394868;19;20156;-62
2022/12/05 08:14:02;;;;;;;0.30;0.30;;;;;;;;;;7396674;19;20132;-62
2022/12/05 08:16:30;;;;;;;0.30;0.30;;;;;;;;;;7395249;19;20121;-62
2022/12/05 08:19:00;;;;;;;0.30;0.30;;;;;;;;;;7396538;19;20603;-62
2022/12/05 08:21:26;;;;;;;0.30;0.30;;;;;;;;;;7394572;19;20137;-62
2022/12/05 08:23:51;;;;;;;0.30;0.30;;;;;;;;;;7393866;19;20461;-62
2022/12/05 08:26:20;;;;;;;0.30;0.30;;;;;;;;;;7395402;19;20176;-62
2022/12/05 08:28:46;;;;;;;0.27;0.27;;;;;;;;;;7395642;19;20141;-62
2022/12/05 08:31:14;;;;;;;0.30;0.30;;;;;;;;;;7394740;19;20119;-62
2022/12/05 08:33:40;;;;;;;0.23;0.23;;;;;;;;;;7395065;19;20125;-62
2022/12/05 08:36:08;;;;;;;0.43;0.43;;;;;;;;;;7394772;19;20147;-62
2022/12/05 08:38:33;;;;;;;0.40;0.40;;;;;;;;;;7396023;19;20598;-62
2022/12/05 08:41:00;;;;;;;0.30;0.30;;;;;;;;;;7394581;19;20113;-62
2022/12/05 08:43:27;;;;;;;0.30;0.30;;;;;;;;;;7390785;19;20142;-62
2022/12/05 08:45:53;;;;;;;0.30;0.30;;;;;;;;;;7395212;19;20125;-62
2022/12/05 08:48:18;;;;;;;0.30;0.30;;;;;;;;;;7397479;19;20528;-62
2022/12/05 08:50:44;;;;;;;0.40;0.40;;;;;;;;;;7395440;19;20124;-62
2022/12/05 08:53:09;;;;;;;0.40;0.40;;;;;;;;;;7393305;19;20552;-62
2022/12/05 08:55:35;;;;;;;0.50;0.50;;;;;;;;;;7396811;19;20200;-62
2022/12/05 08:58:00;;;;;;;0.30;0.30;;;;;;;;;;7392681;19;20125;-62
2022/12/05 09:00:26;;;;;;;0.30;0.30;;;;;;;;;;7396596;19;20117;-62
2022/12/05 09:02:51;;;;;;;0.30;0.30;;;;;;;;;;7392343;19;20152;-62
2022/12/05 09:05:16;;;;;;;0.43;0.43;;;;;;;;;;7396569;19;20113;-62
2022/12/05 09:07:42;;;;;;;0.67;0.67;;;;;;;;;;7394913;19;20133;-62
2022/12/05 09:10:08;;;;;;;1.27;0.60;;;;;;;;;;7394856;19;20561;-62
2022/12/05 09:12:35;;;;;;;0.40;0.40;;;;;;;;;;7389547;19;20176;-62
2022/12/05 09:15:00;;;;;;;0.57;0.40;;;;;;;;;;7394912;19;20147;-62
2022/12/05 09:17:26;;;;;;;0.50;0.50;;;;;;;;;;7393784;19;20125;-62
2022/12/05 09:19:51;;;;;;;0.40;0.40;;;;;;;;;;7396417;19;20124;-62
2022/12/05 09:22:17;;;;;;;0.30;0.30;;;;;;;;;;7392776;19;20603;-62
2022/12/05 09:24:42;;;;;;;1.17;0.53;;;;;;;;;;7395310;19;20117;-62
2022/12/05 09:27:07;;;;;;;0.70;0.70;;;;;;;;;;7393591;19;20128;-62
2022/12/05 09:29:33;;;;;;;0.83;0.83;;;;;;;;;;7395454;19;20478;-62
2022/12/05 09:31:58;;;;;;;0.77;0.50;;;;;;;;;;7393204;19;20148;-62
2022/12/05 09:34:24;;;;;;;0.30;0.30;;;;;;;;;;7394405;19;20121;-62
2022/12/05 09:36:51;;;;;;;0.50;0.50;;;;;;;;;;7395265;19;20121;-62
2022/12/05 09:39:16;;;;;;;0.50;0.50;;;;;;;;;;7392537;19;20121;-62
2022/12/05 09:42:03;;;;;;;0.83;0.60;;;;;;;;;;7389501;19;20158;-62
2022/12/05 09:44:47;;;;;;;0.30;0.30;;;;;;;;;;7395900;19;20117;-62
2022/12/05 09:47:35;;;;;;;0.20;0.20;;;;;;;;;;7394579;19;20133;-62
2022/12/05 09:50:09;;;;;;;0.67;0.67;;;;;;;;;;7391840;19;20133;-62
2022/12/05 09:52:38;;;;;;;0.30;0.30;;;;;;;;;;7391726;19;20152;-62
2022/12/05 09:55:10;;;;;;;0.30;0.30;;;;;;;;;;7391676;19;20144;-62
2022/12/05 09:57:43;;;;;;;0.30;0.30;;;;;;;;;;7392644;19;20128;-62
2022/12/05 10:00:09;;;;;;;0.40;0.40;;;;;;;;;;7392595;19;20136;-62
2022/12/05 10:02:44;;;;;;;0.33;0.33;;;;;;;;;;7389211;19;20182;-62
2022/12/05 10:05:17;;;;;;;0.30;0.30;;;;;;;;;;7388461;19;20124;-62
2022/12/05 10:07:50;;;;;;;0.50;0.50;;;;;;;;;;7386831;19;20121;-62
2022/12/05 10:10:32;;;;;;;0.30;0.30;;;;;;;;;;7388908;19;20184;-62
2022/12/05 10:13:40;;;;;;;0.30;0.30;;;;;;;;;;7385936;19;20159;-62
2022/12/05 10:16:11;;;;;;;0.20;0.20;;;;;;;;;;7391507;19;20163;-62
2022/12/05 10:18:40;;;;;;;0.20;0.20;;;;;;;;;;7385159;19;20602;-62
2022/12/05 10:21:16;;;;;;;0.30;0.30;;;;;;;;;;7388286;19;20113;-62
2022/12/05 10:24:05;;;;;;;0.30;0.30;;;;;;;;;;7381957;19;20148;-62
2022/12/05 10:26:54;;;;;;;0.40;0.40;;;;;;;;;;7384644;19;20145;-62
2022/12/05 10:29:51;;;;;;;0.43;0.43;;;;;;;;;;7384209;19;20137;-62
2022/12/05 10:32:28;;;;;;;0.20;0.20;;;;;;;;;;7375864;19;20172;-62
2022/12/05 10:34:54;;;;;;;0.40;0.40;;;;;;;;;;7380072;19;20120;-62
2022/12/05 10:37:21;;;;;;;0.30;0.30;;;;;;;;;;7389292;19;20142;-62
2022/12/05 10:39:48;;;;;;;0.33;0.33;;;;;;;;;;7386057;19;20658;-62
2022/12/05 10:42:24;;;;;;;0.30;0.30;;;;;;;;;;7387167;19;20216;-62
2022/12/05 10:44:56;;;;;;;0.20;0.20;;;;;;;;;;7368138;19;20149;-62
2022/12/05 10:47:22;;;;;;;0.20;0.20;;;;;;;;;;7379522;19;20124;-62
2022/12/05 10:49:47;;;;;;;0.30;0.30;;;;;;;;;;7383212;19;20152;-62
2022/12/05 10:52:13;;;;;;;0.37;0.37;;;;;;;;;;7376491;19;20743;-62
2022/12/05 10:54:44;;;;;;;0.23;0.23;;;;;;;;;;7374641;19;20140;-62
2022/12/05 10:57:26;;;;;;;0.30;0.30;;;;;;;;;;7381593;19;20125;-62
2022/12/05 10:59:51;;;;;;;0.60;0.60;;;;;;;;;;7388180;19;20153;-62
2022/12/05 11:02:22;;;;;;;0.30;0.30;;;;;;;;;;7385421;19;20169;-62
2022/12/05 11:04:48;;;;;;;0.30;0.30;;;;;;;;;;7390092;19;20602;-62
2022/12/05 11:07:28;;;;;;;0.30;0.30;;;;;;;;;;7390003;19;20137;-62
2022/12/05 11:09:53;;;;;;;0.60;0.60;;;;;;;;;;7390069;19;20517;-62
2022/12/05 11:12:25;;;;;;;0.40;0.40;;;;;;;;;;7389214;19;20145;-62
2022/12/05 11:14:59;;;;;;;2.80;0.50;;;;;;;;;;7390597;19;20168;-62
2022/12/05 11:17:32;;;;;;;0.30;0.30;;;;;;;;;;7389723;19;20144;-62
2022/12/05 11:19:58;;;;;;;0.67;0.67;;;;;;;;;;7390058;19;20478;-62
2022/12/05 11:22:32;;;;;;;0.30;0.30;;;;;;;;;;7386816;19;20259;-63
2022/12/05 11:24:57;;;;;;;0.60;0.60;;;;;;;;;;7385820;19;20125;-63
2022/12/05 11:27:31;;;;;;;0.20;0.20;;;;;;;;;;7388038;19;20117;-62
2022/12/05 11:30:24;;;;;;;0.57;0.57;;;;;;;;;;7381820;19;20488;-62
2022/12/05 11:32:50;;;;;;;0.30;0.30;;;;;;;;;;7386759;19;20512;-63
2022/12/05 11:35:24;;;;;;;0.30;0.30;;;;;;;;;;7389718;19;20476;-62
2022/12/05 11:37:59;;;;;;;0.30;0.30;;;;;;;;;;7388800;19;20129;-62
2022/12/05 11:40:25;;;;;;;0.30;0.30;;;;;;;;;;7387951;19;20124;-62
2022/12/05 11:42:56;;;;;;;0.30;0.30;;;;;;;;;;7387936;19;20526;-62
2022/12/05 11:45:30;;;;;;;0.73;0.60;;;;;;;;;;7389007;19;20143;-63
2022/12/05 11:48:28;;;;;;;0.30;0.30;;;;;;;;;;7390593;19;20125;-63
2022/12/05 11:51:06;;;;;;;0.30;0.30;;;;;;;;;;7389963;19;20149;-62
2022/12/05 11:54:08;;;;;;;0.30;0.30;;;;;;;;;;7386839;19;20155;-63
2022/12/05 11:56:37;;;;;;;0.50;0.50;;;;;;;;;;7392049;19;20470;-62
2022/12/05 11:59:17;;;;;;;0.30;0.30;;;;;;;;;;7387569;19;20124;-63
2022/12/05 12:02:20;;;;;;;0.30;0.30;;;;;;;;;;7387545;19;20699;-62
2022/12/05 12:04:50;;;;;;;0.30;0.30;;;;;;;;;;7391315;19;20180;-62
2022/12/05 12:07:24;;;;;;;0.30;0.30;;;;;;;;;;7388562;19;20187;-62
2022/12/05 12:10:27;;;;;;;0.30;0.30;;;;;;;;;;7390032;19;20204;-62
2022/12/05 12:13:24;;;;;;;0.30;0.30;;;;;;;;;;7387588;19;20136;-62
2022/12/05 12:16:14;;;;;;;0.30;0.30;;;;;;;;;;7390327;19;20133;-62
2022/12/05 12:18:55;;;;;;;0.70;0.70;;;;;;;;;;7389003;19;20584;-63
2022/12/05 12:21:54;;;;;;;0.60;0.60;;;;;;;;;;7391014;19;20150;-62
2022/12/05 12:24:51;;;;;;;0.40;0.40;;;;;;;;;;7389004;19;20129;-62
2022/12/05 12:27:20;;;;;;;0.30;0.30;;;;;;;;;;7388930;19;20601;-63
2022/12/05 12:29:59;;;;;;;0.30;0.30;;;;;;;;;;7389988;19;20125;-63
2022/12/05 12:32:47;;;;;;;0.20;0.20;;;;;;;;;;7386115;19;20148;-63
2022/12/05 12:35:37;;;;;;;0.30;0.30;;;;;;;;;;7397971;19;20113;-63
2022/12/05 12:38:30;;;;;;;0.50;0.50;;;;;;;;;;7394277;19;20469;-63
2022/12/05 12:41:18;;;;;;;0.40;0.40;;;;;;;;;;7396198;19;20140;-63
2022/12/05 12:44:21;;;;;;;0.30;0.30;;;;;;;;;;7393229;19;20158;-62
2022/12/05 12:46:51;;;;;;;0.20;0.20;;;;;;;;;;7396280;19;20116;-62
2022/12/05 12:49:35;;;;;;;0.40;0.40;;;;;;;;;;7394954;19;20617;-63
2022/12/05 12:52:03;;;;;;;0.20;0.20;;;;;;;;;;7393998;19;20152;-63
2022/12/05 12:54:51;;;;;;;0.30;0.30;;;;;;;;;;7394425;19;21036;-62
2022/12/05 12:57:37;;;;;;;0.30;0.30;;;;;;;;;;7390094;19;20117;-63
2022/12/05 13:00:31;;;;;;;0.43;0.43;;;;;;;;;;7385956;19;20117;-63
2022/12/05 13:03:16;;;;;;;0.30;0.30;;;;;;;;;;7379077;19;20191;-63
2022/12/05 13:05:46;;;;;;;0.40;0.40;;;;;;;;;;7388889;19;20125;-63
2022/12/05 13:08:17;;;;;;;0.47;0.47;;;;;;;;;;7379478;19;20515;-63
2022/12/05 13:10:44;;;;;;;0.83;0.53;;;;;;;;;;7387874;19;20121;-63
2022/12/05 13:13:15;;;;;;;0.30;0.30;;;;;;;;;;7384692;19;20169;-63
2022/12/05 13:15:49;;;;;;;0.40;0.40;;;;;;;;;;7385468;19;20601;-63
2022/12/05 13:18:22;;;;;;;0.80;0.80;;;;;;;;;;7388970;19;20132;-62
2022/12/05 13:20:59;;;;;;;0.30;0.30;;;;;;;;;;7386007;19;20132;-63
2022/12/05 13:23:27;;;;;;;0.33;0.33;;;;;;;;;;7370169;19;20136;-63
2022/12/05 13:25:54;;;;;;;0.30;0.30;;;;;;;;;;7383134;19;20133;-63
2022/12/05 13:28:40;;;;;;;0.30;0.30;;;;;;;;;;7375335;19;20125;-63
2022/12/05 13:31:07;;;;;;;0.50;0.50;;;;;;;;;;7388735;19;20145;-63
2022/12/05 13:33:43;;;;;;;0.30;0.30;;;;;;;;;;7389820;19;20152;-63
2022/12/05 13:44:37;;;;;;;0.20;0.20;;;;;;;;;;7392508;19;20212;-63
2022/12/05 13:47:06;;;;;;;0.30;0.30;;;;;;;;;;7392189;19;20158;-62
2022/12/05 13:49:48;;;;;;;0.40;0.40;;;;;;;;;;7391954;19;20189;-63
2022/12/05 13:52:26;;;;;;;0.30;0.30;;;;;;;;;;7388420;19;20504;-63
2022/12/05 13:54:57;;;;;;;0.40;0.40;;;;;;;;;;7391035;19;20147;-63
2022/12/05 13:57:38;;;;;;;0.50;0.50;;;;;;;;;;7390754;19;20118;-63
2022/12/05 14:00:22;;;;;;;0.50;0.50;;;;;;;;;;7392228;19;20147;-62
2022/12/05 14:02:50;;;;;;;0.30;0.30;;;;;;;;;;7389361;19;20148;-63
2022/12/05 14:05:16;;;;;;;0.70;0.70;;;;;;;;;;7390490;19;20121;-62
2022/12/05 14:07:45;;;;;;;0.40;0.40;;;;;;;;;;7390820;19;20114;-63
2022/12/05 14:10:15;;;;;;;0.20;0.20;;;;;;;;;;7391975;19;20586;-63
2022/12/05 14:12:54;;;;;;;0.30;0.30;;;;;;;;;;7387683;19;20618;-62
2022/12/05 14:15:47;;;;;;;0.30;0.30;;;;;;;;;;7391610;19;20129;-63
2022/12/05 14:18:44;;;;;;;0.30;0.30;;;;;;;;;;7388936;19;20155;-63
2022/12/05 14:21:47;;;;;;;0.43;0.43;;;;;;;;;;7392310;19;20125;-63
2022/12/05 14:24:26;;;;;;;0.37;0.37;;;;;;;;;;7391126;19;20129;-62
2022/12/05 14:27:25;;;;;;;0.30;0.30;;;;;;;;;;7389559;19;20598;-63
2022/12/05 14:30:12;;;;;;;0.30;0.30;;;;;;;;;;7389363;19;20622;-62
2022/12/05 14:32:41;;;;;;;0.60;0.60;;;;;;;;;;7387968;19;20152;-63
2022/12/05 14:35:12;;;;;;;0.40;0.40;;;;;;;;;;7388188;19;20468;-63
2022/12/05 14:37:42;;;;;;;0.50;0.50;;;;;;;;;;7387976;19;20132;-63
2022/12/05 14:40:35;;;;;;;0.73;0.73;;;;;;;;;;7387460;19;20210;-63
2022/12/05 14:43:00;;;;;;;0.60;0.60;;;;;;;;;;7384260;19;20165;-63
2022/12/05 14:45:26;;;;;;;0.30;0.30;;;;;;;;;;7390440;19;20128;-63
2022/12/05 14:47:53;;;;;;;0.63;0.63;;;;;;;;;;7390441;19;20121;-63
2022/12/05 14:50:32;;;;;;;0.40;0.40;;;;;;;;;;7388053;19;20121;-62
2022/12/05 14:53:13;;;;;;;0.33;0.33;;;;;;;;;;7389525;19;20648;-63
2022/12/05 14:55:39;;;;;;;0.37;0.37;;;;;;;;;;7387374;19;20446;-63
2022/12/05 14:58:15;;;;;;;0.30;0.30;;;;;;;;;;7390236;19;20125;-62
2022/12/05 15:00:40;;;;;;;0.20;0.20;;;;;;;;;;7386682;19;20164;-62
2022/12/05 15:03:24;;;;;;;0.30;0.30;;;;;;;;;;7386101;19;20154;-63
2022/12/05 15:05:49;;;;;;;0.63;0.63;;;;;;;;;;7389370;19;20120;-63
2022/12/05 15:08:15;;;;;;;0.37;0.37;;;;;;;;;;7390541;19;20121;-63
2022/12/05 15:10:41;;;;;;;0.40;0.40;;;;;;;;;;7386790;19;20117;-62
2022/12/05 15:13:07;;;;;;;0.30;0.30;;;;;;;;;;7387900;19;20153;-62
2022/12/05 15:15:38;;;;;;;0.30;0.30;;;;;;;;;;7387019;19;20146;-62
2022/12/05 15:18:25;;;;;;;0.87;0.87;;;;;;;;;;7390656;19;20158;-62
2022/12/05 15:20:57;;;;;;;0.37;0.37;;;;;;;;;;7387156;19;20537;-63
2022/12/05 15:23:41;;;;;;;0.30;0.30;;;;;;;;;;7385154;19;20144;-62
2022/12/05 15:26:15;;;;;;;0.30;0.30;;;;;;;;;;7389247;19;20132;-62
2022/12/05 15:28:40;;;;;;;0.30;0.30;;;;;;;;;;7388738;19;20117;-62